sensor_id;sensor_type;location;lat;lon;timestamp;P1;durP1;ratioP1;P2;durP2;ratioP2
3121;SDS011;1571;52.524;14.104;2023-05-17T00:00:06;1.93;;;0.70;;
3121;SDS011;1571;52.524;14.104;2023-05-17T00:02:36;1.97;;;1.27;;
3121;SDS011;1571;52.524;14.104;2023-05-17T00:05:04;2.23;;;0.90;;
3121;SDS011;1571;52.524;14.104;2023-05-17T00:07:33;2.97;;;1.07;;
3121;SDS011;1571;52.524;14.104;2023-05-17T00:10:02;2.77;;;0.83;;
3121;SDS011;1571;52.524;14.104;2023-05-17T00:12:30;3.10;;;0.80;;
3121;SDS011;1571;52.524;14.104;2023-05-17T00:14:58;4.00;;;0.90;;
3121;SDS011;1571;52.524;14.104;2023-05-17T00:17:28;5.23;;;1.10;;
3121;SDS011;1571;52.524;14.104;2023-05-17T00:19:57;5.30;;;1.20;;
3121;SDS011;1571;52.524;14.104;2023-05-17T00:22:25;2.37;;;1.13;;
3121;SDS011;1571;52.524;14.104;2023-05-17T00:24:53;2.40;;;1.13;;
3121;SDS011;1571;52.524;14.104;2023-05-17T00:27:21;5.70;;;1.47;;
3121;SDS011;1571;52.524;14.104;2023-05-17T00:29:50;1.77;;;1.10;;
3121;SDS011;1571;52.524;14.104;2023-05-17T00:32:18;3.47;;;1.20;;
3121;SDS011;1571;52.524;14.104;2023-05-17T00:34:48;4.60;;;1.53;;
3121;SDS011;1571;52.524;14.104;2023-05-17T00:37:16;1.30;;;1.00;;
3121;SDS011;1571;52.524;14.104;2023-05-17T00:39:44;1.93;;;1.27;;
3121;SDS011;1571;52.524;14.104;2023-05-17T00:42:13;2.90;;;1.23;;
3121;SDS011;1571;52.524;14.104;2023-05-17T00:44:41;3.77;;;1.60;;
3121;SDS011;1571;52.524;14.104;2023-05-17T00:47:10;1.50;;;1.40;;
3121;SDS011;1571;52.524;14.104;2023-05-17T00:49:38;1.37;;;0.90;;
3121;SDS011;1571;52.524;14.104;2023-05-17T00:52:08;3.60;;;1.57;;
3121;SDS011;1571;52.524;14.104;2023-05-17T00:54:36;4.53;;;2.50;;
3121;SDS011;1571;52.524;14.104;2023-05-17T00:57:05;2.07;;;1.43;;
3121;SDS011;1571;52.524;14.104;2023-05-17T00:59:34;1.80;;;1.20;;
3121;SDS011;1571;52.524;14.104;2023-05-17T01:02:03;2.13;;;1.20;;
3121;SDS011;1571;52.524;14.104;2023-05-17T01:04:32;3.43;;;0.97;;
3121;SDS011;1571;52.524;14.104;2023-05-17T01:07:00;2.90;;;1.10;;
3121;SDS011;1571;52.524;14.104;2023-05-17T01:09:29;2.20;;;1.23;;
3121;SDS011;1571;52.524;14.104;2023-05-17T01:12:01;1.93;;;1.00;;
3121;SDS011;1571;52.524;14.104;2023-05-17T01:14:37;1.53;;;1.07;;
3121;SDS011;1571;52.524;14.104;2023-05-17T01:17:15;4.23;;;1.30;;
3121;SDS011;1571;52.524;14.104;2023-05-17T01:19:52;2.03;;;1.33;;
3121;SDS011;1571;52.524;14.104;2023-05-17T01:22:26;2.90;;;1.23;;
3121;SDS011;1571;52.524;14.104;2023-05-17T01:25:03;1.77;;;1.20;;
3121;SDS011;1571;52.524;14.104;2023-05-17T01:27:40;3.90;;;1.17;;
3121;SDS011;1571;52.524;14.104;2023-05-17T01:30:12;5.63;;;1.67;;
3121;SDS011;1571;52.524;14.104;2023-05-17T01:32:43;4.07;;;1.43;;
3121;SDS011;1571;52.524;14.104;2023-05-17T01:35:13;3.43;;;1.30;;
3121;SDS011;1571;52.524;14.104;2023-05-17T01:37:42;3.63;;;1.10;;
3121;SDS011;1571;52.524;14.104;2023-05-17T01:40:10;3.37;;;1.30;;
3121;SDS011;1571;52.524;14.104;2023-05-17T01:42:40;1.53;;;1.13;;
3121;SDS011;1571;52.524;14.104;2023-05-17T01:45:11;2.80;;;1.30;;
3121;SDS011;1571;52.524;14.104;2023-05-17T01:47:47;2.37;;;1.90;;
3121;SDS011;1571;52.524;14.104;2023-05-17T01:50:21;8.77;;;1.70;;
3121;SDS011;1571;52.524;14.104;2023-05-17T01:52:51;6.70;;;1.33;;
3121;SDS011;1571;52.524;14.104;2023-05-17T01:55:24;4.90;;;1.50;;
3121;SDS011;1571;52.524;14.104;2023-05-17T01:57:55;3.47;;;2.07;;
3121;SDS011;1571;52.524;14.104;2023-05-17T02:00:24;6.30;;;1.70;;
3121;SDS011;1571;52.524;14.104;2023-05-17T02:02:56;1.77;;;1.30;;
3121;SDS011;1571;52.524;14.104;2023-05-17T02:05:25;2.47;;;1.70;;
3121;SDS011;1571;52.524;14.104;2023-05-17T02:07:53;2.30;;;1.23;;
3121;SDS011;1571;52.524;14.104;2023-05-17T02:10:22;5.20;;;1.53;;
3121;SDS011;1571;52.524;14.104;2023-05-17T02:12:50;3.07;;;1.57;;
3121;SDS011;1571;52.524;14.104;2023-05-17T02:15:20;7.47;;;2.40;;
3121;SDS011;1571;52.524;14.104;2023-05-17T02:17:48;6.80;;;2.07;;
3121;SDS011;1571;52.524;14.104;2023-05-17T02:20:17;11.60;;;1.80;;
3121;SDS011;1571;52.524;14.104;2023-05-17T02:22:45;3.83;;;1.50;;
3121;SDS011;1571;52.524;14.104;2023-05-17T02:25:14;8.73;;;2.10;;
3121;SDS011;1571;52.524;14.104;2023-05-17T02:27:42;7.33;;;2.53;;
3121;SDS011;1571;52.524;14.104;2023-05-17T02:30:11;4.13;;;2.00;;
3121;SDS011;1571;52.524;14.104;2023-05-17T02:32:45;2.20;;;1.83;;
3121;SDS011;1571;52.524;14.104;2023-05-17T02:35:14;4.30;;;2.10;;
3121;SDS011;1571;52.524;14.104;2023-05-17T02:37:42;4.70;;;2.30;;
3121;SDS011;1571;52.524;14.104;2023-05-17T02:40:12;4.30;;;1.87;;
3121;SDS011;1571;52.524;14.104;2023-05-17T02:42:40;7.30;;;2.07;;
3121;SDS011;1571;52.524;14.104;2023-05-17T02:45:09;8.57;;;1.73;;
3121;SDS011;1571;52.524;14.104;2023-05-17T02:47:38;6.70;;;2.57;;
3121;SDS011;1571;52.524;14.104;2023-05-17T02:50:08;5.00;;;2.50;;
3121;SDS011;1571;52.524;14.104;2023-05-17T02:52:37;8.00;;;2.30;;
3121;SDS011;1571;52.524;14.104;2023-05-17T02:55:06;10.73;;;3.10;;
3121;SDS011;1571;52.524;14.104;2023-05-17T02:57:35;4.77;;;2.70;;
3121;SDS011;1571;52.524;14.104;2023-05-17T03:00:03;7.73;;;3.13;;
3121;SDS011;1571;52.524;14.104;2023-05-17T03:02:33;5.70;;;2.47;;
3121;SDS011;1571;52.524;14.104;2023-05-17T03:05:01;7.50;;;3.00;;
3121;SDS011;1571;52.524;14.104;2023-05-17T03:07:32;3.90;;;2.40;;
3121;SDS011;1571;52.524;14.104;2023-05-17T03:10:01;12.80;;;2.50;;
3121;SDS011;1571;52.524;14.104;2023-05-17T03:12:35;8.83;;;3.10;;
3121;SDS011;1571;52.524;14.104;2023-05-17T03:15:04;6.03;;;2.53;;
3121;SDS011;1571;52.524;14.104;2023-05-17T03:17:33;7.33;;;2.70;;
3121;SDS011;1571;52.524;14.104;2023-05-17T03:20:03;5.23;;;2.00;;
3121;SDS011;1571;52.524;14.104;2023-05-17T03:22:36;9.53;;;3.20;;
3121;SDS011;1571;52.524;14.104;2023-05-17T03:25:04;7.27;;;2.70;;
3121;SDS011;1571;52.524;14.104;2023-05-17T03:27:33;11.53;;;3.23;;
3121;SDS011;1571;52.524;14.104;2023-05-17T03:30:02;8.07;;;3.07;;
3121;SDS011;1571;52.524;14.104;2023-05-17T03:32:32;13.70;;;4.33;;
3121;SDS011;1571;52.524;14.104;2023-05-17T03:35:01;8.77;;;3.07;;
3121;SDS011;1571;52.524;14.104;2023-05-17T03:37:29;3.80;;;2.10;;
3121;SDS011;1571;52.524;14.104;2023-05-17T03:39:59;6.57;;;4.13;;
3121;SDS011;1571;52.524;14.104;2023-05-17T03:42:27;12.67;;;3.80;;
3121;SDS011;1571;52.524;14.104;2023-05-17T03:44:55;7.53;;;4.17;;
3121;SDS011;1571;52.524;14.104;2023-05-17T03:47:24;8.50;;;3.20;;
3121;SDS011;1571;52.524;14.104;2023-05-17T03:49:53;6.03;;;2.77;;
3121;SDS011;1571;52.524;14.104;2023-05-17T03:52:22;4.60;;;2.50;;
3121;SDS011;1571;52.524;14.104;2023-05-17T03:54:50;8.00;;;4.77;;
3121;SDS011;1571;52.524;14.104;2023-05-17T03:57:20;7.00;;;3.20;;
3121;SDS011;1571;52.524;14.104;2023-05-17T03:59:49;9.30;;;2.33;;
3121;SDS011;1571;52.524;14.104;2023-05-17T04:02:19;10.90;;;3.97;;
3121;SDS011;1571;52.524;14.104;2023-05-17T04:04:47;7.20;;;2.93;;
3121;SDS011;1571;52.524;14.104;2023-05-17T04:07:17;9.07;;;3.60;;
3121;SDS011;1571;52.524;14.104;2023-05-17T04:09:46;8.97;;;3.70;;
3121;SDS011;1571;52.524;14.104;2023-05-17T04:12:14;12.73;;;3.13;;
3121;SDS011;1571;52.524;14.104;2023-05-17T04:14:44;6.07;;;3.43;;
3121;SDS011;1571;52.524;14.104;2023-05-17T04:17:13;10.43;;;3.40;;
3121;SDS011;1571;52.524;14.104;2023-05-17T04:19:43;7.80;;;3.30;;
3121;SDS011;1571;52.524;14.104;2023-05-17T04:22:13;13.43;;;4.80;;
3121;SDS011;1571;52.524;14.104;2023-05-17T04:24:42;7.93;;;2.60;;
3121;SDS011;1571;52.524;14.104;2023-05-17T04:27:10;7.27;;;2.60;;
3121;SDS011;1571;52.524;14.104;2023-05-17T04:29:38;6.03;;;3.70;;
3121;SDS011;1571;52.524;14.104;2023-05-17T04:32:08;18.63;;;4.00;;
3121;SDS011;1571;52.524;14.104;2023-05-17T04:34:37;8.10;;;3.80;;
3121;SDS011;1571;52.524;14.104;2023-05-17T04:37:07;3.90;;;3.00;;
3121;SDS011;1571;52.524;14.104;2023-05-17T04:39:36;5.43;;;2.87;;
3121;SDS011;1571;52.524;14.104;2023-05-17T04:42:05;6.33;;;3.10;;
3121;SDS011;1571;52.524;14.104;2023-05-17T04:44:38;12.10;;;3.47;;
3121;SDS011;1571;52.524;14.104;2023-05-17T04:47:09;7.13;;;4.10;;
3121;SDS011;1571;52.524;14.104;2023-05-17T04:49:38;8.03;;;4.20;;
3121;SDS011;1571;52.524;14.104;2023-05-17T04:52:07;13.40;;;4.20;;
3121;SDS011;1571;52.524;14.104;2023-05-17T04:54:35;12.00;;;4.00;;
3121;SDS011;1571;52.524;14.104;2023-05-17T04:57:04;6.37;;;3.17;;
3121;SDS011;1571;52.524;14.104;2023-05-17T04:59:51;10.50;;;4.10;;
3121;SDS011;1571;52.524;14.104;2023-05-17T05:02:21;4.13;;;3.03;;
3121;SDS011;1571;52.524;14.104;2023-05-17T05:04:50;11.90;;;3.63;;
3121;SDS011;1571;52.524;14.104;2023-05-17T05:07:18;11.20;;;2.70;;
3121;SDS011;1571;52.524;14.104;2023-05-17T05:09:47;12.00;;;3.97;;
3121;SDS011;1571;52.524;14.104;2023-05-17T05:12:16;11.27;;;3.73;;
3121;SDS011;1571;52.524;14.104;2023-05-17T05:14:46;6.80;;;3.70;;
3121;SDS011;1571;52.524;14.104;2023-05-17T05:17:14;8.27;;;3.43;;
3121;SDS011;1571;52.524;14.104;2023-05-17T05:19:43;9.63;;;3.50;;
3121;SDS011;1571;52.524;14.104;2023-05-17T05:22:12;15.40;;;3.77;;
3121;SDS011;1571;52.524;14.104;2023-05-17T05:24:41;12.50;;;3.63;;
3121;SDS011;1571;52.524;14.104;2023-05-17T05:27:09;12.27;;;4.33;;
3121;SDS011;1571;52.524;14.104;2023-05-17T05:29:37;10.73;;;4.10;;
3121;SDS011;1571;52.524;14.104;2023-05-17T05:32:06;19.03;;;4.23;;
3121;SDS011;1571;52.524;14.104;2023-05-17T05:34:41;10.00;;;3.10;;
3121;SDS011;1571;52.524;14.104;2023-05-17T05:37:14;4.83;;;3.33;;
3121;SDS011;1571;52.524;14.104;2023-05-17T05:39:45;19.07;;;4.57;;
3121;SDS011;1571;52.524;14.104;2023-05-17T05:42:14;11.07;;;4.00;;
3121;SDS011;1571;52.524;14.104;2023-05-17T05:44:42;9.40;;;3.67;;
3121;SDS011;1571;52.524;14.104;2023-05-17T05:47:11;9.70;;;3.63;;
3121;SDS011;1571;52.524;14.104;2023-05-17T05:49:39;10.50;;;3.40;;
3121;SDS011;1571;52.524;14.104;2023-05-17T05:52:07;5.60;;;2.70;;
3121;SDS011;1571;52.524;14.104;2023-05-17T05:54:38;9.63;;;4.10;;
3121;SDS011;1571;52.524;14.104;2023-05-17T05:57:06;6.77;;;3.70;;
3121;SDS011;1571;52.524;14.104;2023-05-17T05:59:35;7.57;;;3.30;;
3121;SDS011;1571;52.524;14.104;2023-05-17T06:02:03;11.47;;;3.50;;
3121;SDS011;1571;52.524;14.104;2023-05-17T06:04:31;11.50;;;3.73;;
3121;SDS011;1571;52.524;14.104;2023-05-17T06:07:11;3.50;;;2.60;;
3121;SDS011;1571;52.524;14.104;2023-05-17T06:09:42;11.90;;;3.10;;
3121;SDS011;1571;52.524;14.104;2023-05-17T06:12:10;13.20;;;3.77;;
3121;SDS011;1571;52.524;14.104;2023-05-17T06:14:38;7.80;;;3.70;;
3121;SDS011;1571;52.524;14.104;2023-05-17T06:17:06;10.27;;;3.27;;
3121;SDS011;1571;52.524;14.104;2023-05-17T06:19:35;12.80;;;3.50;;
3121;SDS011;1571;52.524;14.104;2023-05-17T06:22:03;5.80;;;2.13;;
3121;SDS011;1571;52.524;14.104;2023-05-17T06:24:31;6.83;;;2.10;;
3121;SDS011;1571;52.524;14.104;2023-05-17T06:27:01;8.57;;;3.00;;
3121;SDS011;1571;52.524;14.104;2023-05-17T06:29:29;4.43;;;2.40;;
3121;SDS011;1571;52.524;14.104;2023-05-17T06:31:58;8.27;;;4.30;;
3121;SDS011;1571;52.524;14.104;2023-05-17T06:34:28;5.67;;;2.17;;
3121;SDS011;1571;52.524;14.104;2023-05-17T06:36:57;5.10;;;1.93;;
3121;SDS011;1571;52.524;14.104;2023-05-17T06:39:25;11.27;;;2.70;;
3121;SDS011;1571;52.524;14.104;2023-05-17T06:41:54;4.73;;;2.20;;
3121;SDS011;1571;52.524;14.104;2023-05-17T06:44:23;6.73;;;1.80;;
3121;SDS011;1571;52.524;14.104;2023-05-17T06:46:51;3.87;;;1.87;;
3121;SDS011;1571;52.524;14.104;2023-05-17T06:49:20;8.30;;;2.00;;
3121;SDS011;1571;52.524;14.104;2023-05-17T06:51:48;5.43;;;2.07;;
3121;SDS011;1571;52.524;14.104;2023-05-17T06:54:16;3.83;;;1.73;;
3121;SDS011;1571;52.524;14.104;2023-05-17T06:56:45;5.33;;;1.43;;
3121;SDS011;1571;52.524;14.104;2023-05-17T06:59:13;3.97;;;1.63;;
3121;SDS011;1571;52.524;14.104;2023-05-17T07:01:43;7.03;;;2.17;;
3121;SDS011;1571;52.524;14.104;2023-05-17T07:04:11;7.70;;;1.87;;
3121;SDS011;1571;52.524;14.104;2023-05-17T07:06:40;10.33;;;2.87;;
3121;SDS011;1571;52.524;14.104;2023-05-17T07:09:08;4.60;;;2.30;;
3121;SDS011;1571;52.524;14.104;2023-05-17T07:11:37;4.97;;;1.60;;
3121;SDS011;1571;52.524;14.104;2023-05-17T07:14:05;8.43;;;2.30;;
3121;SDS011;1571;52.524;14.104;2023-05-17T07:16:33;4.33;;;1.90;;
3121;SDS011;1571;52.524;14.104;2023-05-17T07:19:03;4.90;;;1.77;;
3121;SDS011;1571;52.524;14.104;2023-05-17T07:21:32;3.83;;;1.80;;
3121;SDS011;1571;52.524;14.104;2023-05-17T07:24:00;5.73;;;1.97;;
3121;SDS011;1571;52.524;14.104;2023-05-17T07:26:28;6.90;;;1.50;;
3121;SDS011;1571;52.524;14.104;2023-05-17T07:28:57;7.07;;;2.37;;
3121;SDS011;1571;52.524;14.104;2023-05-17T07:31:25;4.90;;;1.60;;
3121;SDS011;1571;52.524;14.104;2023-05-17T07:33:54;4.00;;;1.50;;
3121;SDS011;1571;52.524;14.104;2023-05-17T07:36:23;13.17;;;3.30;;
3121;SDS011;1571;52.524;14.104;2023-05-17T07:38:53;5.43;;;2.70;;
3121;SDS011;1571;52.524;14.104;2023-05-17T07:41:22;4.90;;;1.33;;
3121;SDS011;1571;52.524;14.104;2023-05-17T07:43:50;6.47;;;1.53;;
3121;SDS011;1571;52.524;14.104;2023-05-17T07:46:18;4.43;;;1.47;;
3121;SDS011;1571;52.524;14.104;2023-05-17T07:48:47;4.40;;;1.30;;
3121;SDS011;1571;52.524;14.104;2023-05-17T07:51:15;6.10;;;2.07;;
3121;SDS011;1571;52.524;14.104;2023-05-17T07:53:45;5.73;;;2.10;;
3121;SDS011;1571;52.524;14.104;2023-05-17T07:56:13;7.00;;;1.97;;
3121;SDS011;1571;52.524;14.104;2023-05-17T07:58:42;5.93;;;1.30;;
3121;SDS011;1571;52.524;14.104;2023-05-17T08:01:10;4.70;;;1.03;;
3121;SDS011;1571;52.524;14.104;2023-05-17T08:03:39;7.30;;;1.67;;
3121;SDS011;1571;52.524;14.104;2023-05-17T08:06:13;8.53;;;1.80;;
3121;SDS011;1571;52.524;14.104;2023-05-17T08:08:42;7.10;;;1.60;;
3121;SDS011;1571;52.524;14.104;2023-05-17T08:11:12;6.03;;;2.10;;
3121;SDS011;1571;52.524;14.104;2023-05-17T08:13:41;5.40;;;2.30;;
3121;SDS011;1571;52.524;14.104;2023-05-17T08:16:10;4.20;;;1.40;;
3121;SDS011;1571;52.524;14.104;2023-05-17T08:18:40;8.10;;;1.20;;
3121;SDS011;1571;52.524;14.104;2023-05-17T08:21:09;4.63;;;1.17;;
3121;SDS011;1571;52.524;14.104;2023-05-17T08:23:39;5.73;;;1.20;;
3121;SDS011;1571;52.524;14.104;2023-05-17T08:26:07;3.33;;;2.00;;
3121;SDS011;1571;52.524;14.104;2023-05-17T08:28:37;5.87;;;1.40;;
3121;SDS011;1571;52.524;14.104;2023-05-17T08:31:05;2.87;;;1.03;;
3121;SDS011;1571;52.524;14.104;2023-05-17T08:33:33;2.40;;;1.23;;
3121;SDS011;1571;52.524;14.104;2023-05-17T08:36:02;4.10;;;1.03;;
3121;SDS011;1571;52.524;14.104;2023-05-17T08:38:33;3.03;;;1.30;;
3121;SDS011;1571;52.524;14.104;2023-05-17T08:41:02;6.27;;;1.57;;
3121;SDS011;1571;52.524;14.104;2023-05-17T08:43:30;8.70;;;1.43;;
3121;SDS011;1571;52.524;14.104;2023-05-17T08:46:00;6.50;;;1.30;;
3121;SDS011;1571;52.524;14.104;2023-05-17T08:48:30;6.50;;;1.10;;
3121;SDS011;1571;52.524;14.104;2023-05-17T08:50:58;5.03;;;1.20;;
3121;SDS011;1571;52.524;14.104;2023-05-17T08:53:27;5.60;;;3.07;;
3121;SDS011;1571;52.524;14.104;2023-05-17T08:55:56;2.80;;;1.20;;
3121;SDS011;1571;52.524;14.104;2023-05-17T08:58:27;7.47;;;2.00;;
3121;SDS011;1571;52.524;14.104;2023-05-17T09:01:21;4.23;;;1.40;;
3121;SDS011;1571;52.524;14.104;2023-05-17T09:03:53;6.57;;;1.10;;
3121;SDS011;1571;52.524;14.104;2023-05-17T09:06:22;4.30;;;1.83;;
3121;SDS011;1571;52.524;14.104;2023-05-17T09:08:51;3.83;;;0.80;;
3121;SDS011;1571;52.524;14.104;2023-05-17T09:11:23;3.17;;;1.00;;
3121;SDS011;1571;52.524;14.104;2023-05-17T09:13:56;4.97;;;1.40;;
3121;SDS011;1571;52.524;14.104;2023-05-17T09:16:28;10.50;;;1.90;;
3121;SDS011;1571;52.524;14.104;2023-05-17T09:18:56;6.03;;;1.27;;
3121;SDS011;1571;52.524;14.104;2023-05-17T09:21:26;1.60;;;1.00;;
3121;SDS011;1571;52.524;14.104;2023-05-17T09:23:55;3.23;;;1.10;;
3121;SDS011;1571;52.524;14.104;2023-05-17T09:26:36;1.33;;;0.90;;
3121;SDS011;1571;52.524;14.104;2023-05-17T09:29:06;4.10;;;1.83;;
3121;SDS011;1571;52.524;14.104;2023-05-17T09:31:38;1.77;;;1.20;;
3121;SDS011;1571;52.524;14.104;2023-05-17T09:34:06;2.37;;;1.10;;
3121;SDS011;1571;52.524;14.104;2023-05-17T09:36:36;7.00;;;2.40;;
3121;SDS011;1571;52.524;14.104;2023-05-17T09:39:05;9.27;;;3.00;;
3121;SDS011;1571;52.524;14.104;2023-05-17T09:41:41;4.50;;;0.80;;
3121;SDS011;1571;52.524;14.104;2023-05-17T09:44:12;8.20;;;0.90;;
3121;SDS011;1571;52.524;14.104;2023-05-17T09:46:43;2.40;;;1.30;;
3121;SDS011;1571;52.524;14.104;2023-05-17T09:49:13;2.40;;;1.03;;
3121;SDS011;1571;52.524;14.104;2023-05-17T09:51:43;2.80;;;0.90;;
3121;SDS011;1571;52.524;14.104;2023-05-17T09:54:13;1.93;;;1.00;;
3121;SDS011;1571;52.524;14.104;2023-05-17T09:56:43;4.70;;;0.90;;
3121;SDS011;1571;52.524;14.104;2023-05-17T09:59:12;4.13;;;1.33;;
3121;SDS011;1571;52.524;14.104;2023-05-17T10:01:43;3.10;;;0.80;;
3121;SDS011;1571;52.524;14.104;2023-05-17T10:04:12;6.20;;;1.00;;
3121;SDS011;1571;52.524;14.104;2023-05-17T10:06:46;6.47;;;1.00;;
3121;SDS011;1571;52.524;14.104;2023-05-17T10:09:20;4.70;;;1.30;;
3121;SDS011;1571;52.524;14.104;2023-05-17T10:11:49;4.33;;;1.10;;
3121;SDS011;1571;52.524;14.104;2023-05-17T10:14:20;3.97;;;0.77;;
3121;SDS011;1571;52.524;14.104;2023-05-17T10:16:52;1.97;;;0.90;;
3121;SDS011;1571;52.524;14.104;2023-05-17T10:19:20;5.70;;;1.43;;
3121;SDS011;1571;52.524;14.104;2023-05-17T10:21:51;4.40;;;1.50;;
3121;SDS011;1571;52.524;14.104;2023-05-17T10:24:20;2.77;;;1.17;;
3121;SDS011;1571;52.524;14.104;2023-05-17T10:26:50;4.00;;;1.43;;
3121;SDS011;1571;52.524;14.104;2023-05-17T10:29:18;6.33;;;0.77;;
3121;SDS011;1571;52.524;14.104;2023-05-17T10:31:47;3.23;;;0.90;;
3121;SDS011;1571;52.524;14.104;2023-05-17T10:34:19;9.40;;;1.23;;
3121;SDS011;1571;52.524;14.104;2023-05-17T10:36:47;3.20;;;0.90;;
3121;SDS011;1571;52.524;14.104;2023-05-17T10:39:16;5.80;;;1.30;;
3121;SDS011;1571;52.524;14.104;2023-05-17T10:41:45;1.30;;;1.20;;
3121;SDS011;1571;52.524;14.104;2023-05-17T10:44:19;3.00;;;0.83;;
3121;SDS011;1571;52.524;14.104;2023-05-17T10:46:52;7.60;;;1.20;;
3121;SDS011;1571;52.524;14.104;2023-05-17T10:49:24;5.90;;;1.10;;
3121;SDS011;1571;52.524;14.104;2023-05-17T10:51:55;6.60;;;1.07;;
3121;SDS011;1571;52.524;14.104;2023-05-17T10:54:33;3.90;;;1.00;;
3121;SDS011;1571;52.524;14.104;2023-05-17T10:57:06;2.93;;;0.80;;
3121;SDS011;1571;52.524;14.104;2023-05-17T10:59:37;3.87;;;1.53;;
3121;SDS011;1571;52.524;14.104;2023-05-17T11:02:23;2.03;;;0.60;;
3121;SDS011;1571;52.524;14.104;2023-05-17T11:04:54;4.83;;;1.10;;
3121;SDS011;1571;52.524;14.104;2023-05-17T11:07:24;3.77;;;1.20;;
3121;SDS011;1571;52.524;14.104;2023-05-17T11:10:02;1.90;;;0.97;;
3121;SDS011;1571;52.524;14.104;2023-05-17T11:12:38;4.97;;;1.67;;
3121;SDS011;1571;52.524;14.104;2023-05-17T11:15:08;2.07;;;0.97;;
3121;SDS011;1571;52.524;14.104;2023-05-17T11:17:47;6.43;;;1.07;;
3121;SDS011;1571;52.524;14.104;2023-05-17T11:20:32;4.30;;;1.57;;
3121;SDS011;1571;52.524;14.104;2023-05-17T11:23:05;2.90;;;0.90;;
3121;SDS011;1571;52.524;14.104;2023-05-17T11:25:35;2.40;;;0.93;;
3121;SDS011;1571;52.524;14.104;2023-05-17T11:28:05;6.00;;;1.00;;
3121;SDS011;1571;52.524;14.104;2023-05-17T11:30:39;6.13;;;1.00;;
3121;SDS011;1571;52.524;14.104;2023-05-17T11:33:08;2.30;;;1.10;;
3121;SDS011;1571;52.524;14.104;2023-05-17T11:35:52;5.20;;;1.13;;
3121;SDS011;1571;52.524;14.104;2023-05-17T11:38:22;2.27;;;1.27;;
3121;SDS011;1571;52.524;14.104;2023-05-17T11:40:56;5.13;;;0.93;;
3121;SDS011;1571;52.524;14.104;2023-05-17T11:43:24;2.50;;;1.40;;
3121;SDS011;1571;52.524;14.104;2023-05-17T11:45:57;3.67;;;1.07;;
3121;SDS011;1571;52.524;14.104;2023-05-17T11:48:28;3.20;;;0.90;;
3121;SDS011;1571;52.524;14.104;2023-05-17T11:50:59;5.40;;;0.97;;
3121;SDS011;1571;52.524;14.104;2023-05-17T11:53:28;4.93;;;1.50;;
3121;SDS011;1571;52.524;14.104;2023-05-17T11:55:57;1.00;;;0.90;;
3121;SDS011;1571;52.524;14.104;2023-05-17T11:58:30;4.40;;;1.17;;
3121;SDS011;1571;52.524;14.104;2023-05-17T12:00:58;8.00;;;1.53;;
3121;SDS011;1571;52.524;14.104;2023-05-17T12:03:27;4.53;;;0.93;;
3121;SDS011;1571;52.524;14.104;2023-05-17T12:06:01;3.70;;;1.00;;
3121;SDS011;1571;52.524;14.104;2023-05-17T12:08:32;8.23;;;1.40;;
3121;SDS011;1571;52.524;14.104;2023-05-17T12:11:01;4.37;;;1.17;;
3121;SDS011;1571;52.524;14.104;2023-05-17T12:13:31;9.40;;;1.60;;
3121;SDS011;1571;52.524;14.104;2023-05-17T12:16:01;3.00;;;1.20;;
3121;SDS011;1571;52.524;14.104;2023-05-17T12:18:35;3.67;;;1.30;;
3121;SDS011;1571;52.524;14.104;2023-05-17T12:21:06;2.70;;;0.90;;
3121;SDS011;1571;52.524;14.104;2023-05-17T12:23:36;4.63;;;1.60;;
3121;SDS011;1571;52.524;14.104;2023-05-17T12:26:07;5.20;;;1.33;;
3121;SDS011;1571;52.524;14.104;2023-05-17T12:28:37;3.17;;;1.00;;
3121;SDS011;1571;52.524;14.104;2023-05-17T12:31:08;2.07;;;1.10;;
3121;SDS011;1571;52.524;14.104;2023-05-17T12:33:39;3.50;;;1.10;;
3121;SDS011;1571;52.524;14.104;2023-05-17T12:36:10;4.13;;;1.20;;
3121;SDS011;1571;52.524;14.104;2023-05-17T12:38:40;4.60;;;1.00;;
3121;SDS011;1571;52.524;14.104;2023-05-17T12:41:10;2.30;;;0.90;;
3121;SDS011;1571;52.524;14.104;2023-05-17T12:43:39;3.60;;;1.00;;
3121;SDS011;1571;52.524;14.104;2023-05-17T12:46:10;4.23;;;1.47;;
3121;SDS011;1571;52.524;14.104;2023-05-17T12:48:40;9.93;;;1.23;;
3121;SDS011;1571;52.524;14.104;2023-05-17T12:51:11;4.80;;;1.13;;
3121;SDS011;1571;52.524;14.104;2023-05-17T12:53:41;5.90;;;1.07;;
3121;SDS011;1571;52.524;14.104;2023-05-17T12:56:14;4.60;;;1.97;;
3121;SDS011;1571;52.524;14.104;2023-05-17T12:59:02;5.13;;;1.10;;
3121;SDS011;1571;52.524;14.104;2023-05-17T13:01:32;2.97;;;1.00;;
3121;SDS011;1571;52.524;14.104;2023-05-17T13:04:01;3.23;;;1.00;;
3121;SDS011;1571;52.524;14.104;2023-05-17T13:06:42;2.63;;;0.90;;
3121;SDS011;1571;52.524;14.104;2023-05-17T13:09:12;3.43;;;1.20;;
3121;SDS011;1571;52.524;14.104;2023-05-17T13:11:41;4.70;;;1.17;;
3121;SDS011;1571;52.524;14.104;2023-05-17T13:14:09;3.20;;;1.03;;
3121;SDS011;1571;52.524;14.104;2023-05-17T13:16:39;6.80;;;1.53;;
3121;SDS011;1571;52.524;14.104;2023-05-17T13:19:12;4.83;;;1.30;;
3121;SDS011;1571;52.524;14.104;2023-05-17T13:21:40;2.87;;;1.13;;
3121;SDS011;1571;52.524;14.104;2023-05-17T13:24:10;2.63;;;1.00;;
3121;SDS011;1571;52.524;14.104;2023-05-17T13:26:38;3.03;;;1.10;;
3121;SDS011;1571;52.524;14.104;2023-05-17T13:29:06;3.53;;;0.97;;
3121;SDS011;1571;52.524;14.104;2023-05-17T13:31:35;3.73;;;1.10;;
3121;SDS011;1571;52.524;14.104;2023-05-17T13:34:03;3.73;;;1.00;;
3121;SDS011;1571;52.524;14.104;2023-05-17T13:36:31;3.80;;;1.10;;
3121;SDS011;1571;52.524;14.104;2023-05-17T13:39:00;2.07;;;0.83;;
3121;SDS011;1571;52.524;14.104;2023-05-17T13:41:30;1.73;;;0.90;;
3121;SDS011;1571;52.524;14.104;2023-05-17T13:43:58;5.50;;;1.47;;
3121;SDS011;1571;52.524;14.104;2023-05-17T13:46:26;8.73;;;2.37;;
3121;SDS011;1571;52.524;14.104;2023-05-17T13:48:54;4.67;;;0.80;;
3121;SDS011;1571;52.524;14.104;2023-05-17T13:51:23;2.87;;;0.97;;
3121;SDS011;1571;52.524;14.104;2023-05-17T13:53:52;8.70;;;2.20;;
3121;SDS011;1571;52.524;14.104;2023-05-17T13:56:20;7.70;;;1.03;;
3121;SDS011;1571;52.524;14.104;2023-05-17T13:58:50;3.13;;;1.27;;
3121;SDS011;1571;52.524;14.104;2023-05-17T14:01:18;3.23;;;1.10;;
3121;SDS011;1571;52.524;14.104;2023-05-17T14:03:47;2.47;;;1.17;;
3121;SDS011;1571;52.524;14.104;2023-05-17T14:06:15;2.93;;;1.57;;
3121;SDS011;1571;52.524;14.104;2023-05-17T14:08:43;3.30;;;1.03;;
3121;SDS011;1571;52.524;14.104;2023-05-17T14:11:12;5.47;;;1.10;;
3121;SDS011;1571;52.524;14.104;2023-05-17T14:13:40;3.00;;;0.97;;
3121;SDS011;1571;52.524;14.104;2023-05-17T14:16:10;1.73;;;0.83;;
3121;SDS011;1571;52.524;14.104;2023-05-17T14:18:38;5.23;;;1.50;;
3121;SDS011;1571;52.524;14.104;2023-05-17T14:21:07;3.07;;;1.30;;
3121;SDS011;1571;52.524;14.104;2023-05-17T14:23:35;1.83;;;1.20;;
3121;SDS011;1571;52.524;14.104;2023-05-17T14:26:03;3.10;;;1.30;;
3121;SDS011;1571;52.524;14.104;2023-05-17T14:28:33;8.67;;;1.20;;
3121;SDS011;1571;52.524;14.104;2023-05-17T14:31:04;4.80;;;1.23;;
3121;SDS011;1571;52.524;14.104;2023-05-17T14:33:34;3.80;;;0.90;;
3121;SDS011;1571;52.524;14.104;2023-05-17T14:36:03;5.23;;;2.33;;
3121;SDS011;1571;52.524;14.104;2023-05-17T14:38:31;4.60;;;1.30;;
3121;SDS011;1571;52.524;14.104;2023-05-17T14:41:00;2.90;;;1.10;;
3121;SDS011;1571;52.524;14.104;2023-05-17T14:43:29;2.90;;;1.10;;
3121;SDS011;1571;52.524;14.104;2023-05-17T14:45:57;7.27;;;1.30;;
3121;SDS011;1571;52.524;14.104;2023-05-17T14:48:25;6.03;;;2.10;;
3121;SDS011;1571;52.524;14.104;2023-05-17T14:50:55;4.20;;;1.67;;
3121;SDS011;1571;52.524;14.104;2023-05-17T14:53:23;3.50;;;1.00;;
3121;SDS011;1571;52.524;14.104;2023-05-17T14:55:55;2.40;;;1.37;;
3121;SDS011;1571;52.524;14.104;2023-05-17T14:58:24;3.77;;;1.17;;
3121;SDS011;1571;52.524;14.104;2023-05-17T15:00:53;3.93;;;1.40;;
3121;SDS011;1571;52.524;14.104;2023-05-17T15:03:33;3.90;;;1.00;;
3121;SDS011;1571;52.524;14.104;2023-05-17T15:06:03;2.00;;;0.73;;
3121;SDS011;1571;52.524;14.104;2023-05-17T15:08:36;3.30;;;0.87;;
3121;SDS011;1571;52.524;14.104;2023-05-17T15:11:05;3.27;;;1.47;;
3121;SDS011;1571;52.524;14.104;2023-05-17T15:13:33;3.93;;;1.67;;
3121;SDS011;1571;52.524;14.104;2023-05-17T15:16:02;3.10;;;0.90;;